createdAt,value
2017-12-16T00:09:19.174Z,4.30
2017-12-16T00:11:47.403Z,4.20
2017-12-16T00:14:15.625Z,4.30
2017-12-16T00:16:43.836Z,4.30
2017-12-16T00:19:12.066Z,4.30
2017-12-16T00:21:40.302Z,4.40
2017-12-16T00:24:08.591Z,4.40
2017-12-16T00:26:36.817Z,4.50
2017-12-16T00:29:05.050Z,4.50
2017-12-16T00:31:33.287Z,4.60
2017-12-16T00:34:01.527Z,4.60
2017-12-16T00:36:29.776Z,4.60
2017-12-16T00:38:58.003Z,4.70
2017-12-16T00:41:26.248Z,4.70
2017-12-16T00:43:54.474Z,4.70
2017-12-16T00:46:23.509Z,4.70
2017-12-16T00:48:51.739Z,4.60
2017-12-16T00:51:20.015Z,4.60
2017-12-16T00:53:48.233Z,4.60
2017-12-16T00:56:16.485Z,4.50
2017-12-16T00:58:44.708Z,4.40
2017-12-16T01:01:12.964Z,4.30
2017-12-16T01:03:41.195Z,4.30
2017-12-16T01:06:10.194Z,4.20
2017-12-16T01:08:39.193Z,4.10
2017-12-16T01:11:07.421Z,4.10
2017-12-16T01:13:36.455Z,4.00
2017-12-16T01:16:05.754Z,4.00
2017-12-16T01:18:34.750Z,3.90
2017-12-16T01:21:03.743Z,3.80
2017-12-16T01:23:32.087Z,3.70
2017-12-16T01:26:00.324Z,3.80
2017-12-16T01:28:28.562Z,3.70
2017-12-16T01:30:57.569Z,3.70
2017-12-16T01:33:37.631Z,3.70
2017-12-16T01:36:17.738Z,3.70
2017-12-16T01:38:46.766Z,3.80
2017-12-16T01:41:14.995Z,3.70
2017-12-16T01:43:44.119Z,3.80
2017-12-16T01:46:12.364Z,3.80
2017-12-16T01:48:40.604Z,3.80
2017-12-16T01:51:08.839Z,3.90
2017-12-16T01:53:37.060Z,3.90
2017-12-16T01:56:05.296Z,3.90
2017-12-16T01:58:33.679Z,3.90
2017-12-16T02:01:02.154Z,3.90
2017-12-16T02:03:30.386Z,3.90
2017-12-16T02:05:58.613Z,3.80
2017-12-16T02:08:26.841Z,3.80
2017-12-16T02:10:55.097Z,3.80
2017-12-16T02:13:23.308Z,3.80
2017-12-16T02:15:51.656Z,3.90
2017-12-16T02:18:19.910Z,3.90
2017-12-16T02:20:48.133Z,3.90
2017-12-16T02:23:16.362Z,3.90
2017-12-16T02:25:44.611Z,3.90
2017-12-16T02:28:13.614Z,4.00
2017-12-16T02:30:41.846Z,4.00
2017-12-16T02:33:10.078Z,4.10
2017-12-16T02:35:38.330Z,4.10
2017-12-16T02:38:07.420Z,4.00
2017-12-16T02:40:36.428Z,4.00
2017-12-16T02:43:04.648Z,4.00
2017-12-16T02:45:32.890Z,4.00
2017-12-16T02:48:01.114Z,4.00
2017-12-16T02:50:29.342Z,4.00
2017-12-16T02:52:57.571Z,4.00
2017-12-16T02:55:25.802Z,4.00
2017-12-16T02:57:54.031Z,4.00
2017-12-16T03:00:22.271Z,4.00
2017-12-16T03:02:50.547Z,4.00
2017-12-16T03:05:18.806Z,3.90
2017-12-16T03:07:47.038Z,3.90
2017-12-16T03:10:16.030Z,4.00
2017-12-16T03:12:45.030Z,3.90
2017-12-16T03:15:13.538Z,3.90
2017-12-16T03:17:42.506Z,3.80
2017-12-16T03:20:10.757Z,3.80
2017-12-16T03:22:38.982Z,3.90
2017-12-16T03:25:08.011Z,3.70
2017-12-16T03:27:36.238Z,3.70
2017-12-16T03:30:04.468Z,3.70
2017-12-16T03:32:32.699Z,3.70
2017-12-16T03:35:00.946Z,3.70
2017-12-16T03:37:29.186Z,3.70
2017-12-16T03:39:57.409Z,3.70
2017-12-16T03:42:25.694Z,3.70
2017-12-16T03:44:53.922Z,3.70
2017-12-16T03:47:22.144Z,3.70
2017-12-16T03:49:50.390Z,3.70
2017-12-16T03:52:18.606Z,3.70
2017-12-16T03:54:46.873Z,3.80
2017-12-16T03:57:15.104Z,3.70
2017-12-16T03:59:44.103Z,3.70
2017-12-16T04:02:13.096Z,3.70
2017-12-16T04:04:42.098Z,3.80
2017-12-16T04:07:10.338Z,3.70
2017-12-16T04:09:38.588Z,3.80
2017-12-16T04:12:06.816Z,3.80
2017-12-16T04:14:35.815Z,3.80
2017-12-16T04:17:04.042Z,3.80
2017-12-16T04:19:32.264Z,3.80
2017-12-16T04:22:00.489Z,3.70
2017-12-16T04:24:28.711Z,3.60
2017-12-16T04:26:56.942Z,3.60
2017-12-16T04:29:25.146Z,3.50
2017-12-16T04:31:54.151Z,3.40
2017-12-16T04:34:22.369Z,3.40
2017-12-16T04:36:50.633Z,3.40
2017-12-16T04:39:18.838Z,3.40
2017-12-16T04:41:47.051Z,3.40
2017-12-16T04:44:16.039Z,3.40
2017-12-16T04:46:45.019Z,3.50
2017-12-16T04:49:14.030Z,3.50
2017-12-16T04:51:42.266Z,3.40
2017-12-16T04:54:10.484Z,3.50
2017-12-16T04:56:38.704Z,3.40
2017-12-16T04:59:06.935Z,3.40
2017-12-16T05:01:35.167Z,3.40
2017-12-16T05:04:03.398Z,3.40
2017-12-16T05:06:31.615Z,3.40
2017-12-16T05:08:59.859Z,3.40
2017-12-16T05:11:28.082Z,3.40
2017-12-16T05:13:57.070Z,3.40
2017-12-16T05:16:25.301Z,3.40
2017-12-16T05:18:53.517Z,3.50
2017-12-16T05:21:22.526Z,3.50
2017-12-16T05:23:51.515Z,3.50
2017-12-16T05:26:20.502Z,3.50
2017-12-16T05:28:49.488Z,3.60
2017-12-16T05:31:17.712Z,3.50
2017-12-16T05:33:45.946Z,3.60
2017-12-16T05:36:15.622Z,3.60
2017-12-16T05:38:43.844Z,3.60
2017-12-16T05:41:12.090Z,3.70
2017-12-16T05:43:41.094Z,3.70
2017-12-16T05:46:10.082Z,3.70
2017-12-16T05:48:39.079Z,3.70
2017-12-16T05:51:08.063Z,3.80
2017-12-16T05:53:37.063Z,3.70
2017-12-16T05:56:06.054Z,3.70
2017-12-16T05:58:35.692Z,3.70
2017-12-16T06:01:03.918Z,3.60
2017-12-16T06:03:32.145Z,3.70
2017-12-16T06:06:00.382Z,3.70
2017-12-16T06:08:29.381Z,3.70
2017-12-16T06:10:58.373Z,3.60
2017-12-16T06:13:27.375Z,3.70
2017-12-16T06:15:56.354Z,3.70
2017-12-16T06:18:25.370Z,3.70
2017-12-16T06:20:53.595Z,3.70
2017-12-16T06:23:23.040Z,3.70
2017-12-16T06:25:52.032Z,3.70
2017-12-16T06:28:21.006Z,3.70
2017-12-16T06:30:50.014Z,3.80
2017-12-16T06:33:18.244Z,3.70
2017-12-16T06:35:47.281Z,3.80
2017-12-16T06:38:15.554Z,3.70
2017-12-16T06:40:43.743Z,3.80
2017-12-16T06:43:12.714Z,3.80
2017-12-16T06:45:40.962Z,3.70
2017-12-16T06:48:09.181Z,3.80
2017-12-16T06:50:37.426Z,3.80
2017-12-16T06:53:05.639Z,3.80
2017-12-16T06:55:33.844Z,3.80
2017-12-16T06:58:02.076Z,3.80
2017-12-16T07:00:30.288Z,3.90
2017-12-16T07:02:58.523Z,3.80
2017-12-16T07:05:26.780Z,3.80
2017-12-16T07:07:55.876Z,3.70
2017-12-16T07:10:24.872Z,3.70
2017-12-16T07:12:53.095Z,3.70
2017-12-16T07:15:21.308Z,3.70
2017-12-16T07:17:49.530Z,3.70
2017-12-16T07:20:17.766Z,3.70
2017-12-16T07:22:46.792Z,3.60
2017-12-16T07:25:15.034Z,3.60
2017-12-16T07:27:43.260Z,3.60
2017-12-16T07:30:11.485Z,3.70
2017-12-16T07:32:40.470Z,3.70
2017-12-16T07:35:09.470Z,3.80
2017-12-16T07:37:38.570Z,3.80
2017-12-16T07:40:07.658Z,3.80
2017-12-16T07:42:35.846Z,3.70
2017-12-16T07:45:04.085Z,3.80
2017-12-16T07:47:32.281Z,3.70
2017-12-16T07:50:00.526Z,3.80
2017-12-16T07:52:29.038Z,3.80
2017-12-16T07:54:58.030Z,3.90
2017-12-16T07:57:26.265Z,3.80
2017-12-16T07:59:54.494Z,3.90
2017-12-16T08:02:22.732Z,4.00
2017-12-16T08:04:50.952Z,3.90
2017-12-16T08:07:19.181Z,3.90
2017-12-16T08:09:47.428Z,3.90
2017-12-16T08:12:15.642Z,4.00
2017-12-16T08:14:44.635Z,3.90
2017-12-16T08:17:13.662Z,3.90
2017-12-16T08:19:41.901Z,3.90
2017-12-16T08:22:10.101Z,4.00
2017-12-16T08:24:38.346Z,4.00
2017-12-16T08:27:07.333Z,4.10
2017-12-16T08:29:35.563Z,4.10
2017-12-16T08:32:03.831Z,4.20
2017-12-16T08:34:32.104Z,4.20
2017-12-16T08:37:01.070Z,4.20
2017-12-16T08:39:30.079Z,4.20
2017-12-16T08:41:59.046Z,4.20
2017-12-16T08:44:28.046Z,4.30
2017-12-16T08:46:57.032Z,4.40
2017-12-16T08:49:26.058Z,4.50
2017-12-16T08:51:54.287Z,4.40
2017-12-16T08:54:22.517Z,4.60
2017-12-16T08:56:50.752Z,4.70
2017-12-16T08:59:19.783Z,4.60
2017-12-16T09:01:48.022Z,4.60
2017-12-16T09:04:17.021Z,4.70
2017-12-16T09:06:46.011Z,4.70
2017-12-16T09:09:15.015Z,4.70
2017-12-16T09:11:43.244Z,4.70
2017-12-16T09:14:11.471Z,4.60
2017-12-16T09:16:39.711Z,4.60
2017-12-16T09:19:07.910Z,4.60
2017-12-16T09:21:36.167Z,4.60
2017-12-16T09:24:05.148Z,4.50
2017-12-16T09:26:33.386Z,4.40
2017-12-16T09:29:01.653Z,4.50
2017-12-16T09:31:29.869Z,4.50
2017-12-16T09:33:58.099Z,4.60
2017-12-16T09:36:26.321Z,4.60
2017-12-16T09:38:55.338Z,4.70
2017-12-16T09:41:24.353Z,4.70
2017-12-16T09:43:52.574Z,4.60
2017-12-16T09:46:21.596Z,4.60
2017-12-16T09:48:50.594Z,4.50
2017-12-16T09:51:19.885Z,4.50
2017-12-16T09:53:48.883Z,4.50
2017-12-16T09:56:17.867Z,4.50
2017-12-16T09:58:47.666Z,4.60
2017-12-16T10:01:16.651Z,4.60
2017-12-16T10:03:44.894Z,4.50
2017-12-16T10:06:13.123Z,4.60
2017-12-16T10:08:42.113Z,4.90
2017-12-16T10:11:11.418Z,5.00
2017-12-16T10:13:40.399Z,5.10
2017-12-16T10:16:09.403Z,5.20
2017-12-16T10:18:37.638Z,5.20
2017-12-16T10:21:05.875Z,5.20
2017-12-16T10:23:34.104Z,5.20
2017-12-16T10:26:02.352Z,5.20
2017-12-16T10:28:30.584Z,5.10
2017-12-16T10:30:58.818Z,5.10
2017-12-16T10:33:27.052Z,5.20
2017-12-16T10:35:55.281Z,5.20
2017-12-16T10:38:23.499Z,5.00
2017-12-16T10:40:51.745Z,5.00
2017-12-16T10:43:20.738Z,4.90
2017-12-16T10:45:49.722Z,4.90
2017-12-16T10:48:18.858Z,4.90
2017-12-16T10:50:47.105Z,4.90
2017-12-16T10:53:15.299Z,4.90
2017-12-16T10:55:43.527Z,4.90
2017-12-16T10:58:12.551Z,4.90
2017-12-16T11:00:40.804Z,4.80
2017-12-16T11:03:09.845Z,5.00
2017-12-16T11:05:38.075Z,4.90
2017-12-16T11:08:06.312Z,5.00
2017-12-16T11:10:34.531Z,5.00
2017-12-16T11:13:03.530Z,5.10
2017-12-16T11:15:32.521Z,5.20
2017-12-16T11:18:00.759Z,5.10
2017-12-16T11:20:28.971Z,5.20
2017-12-16T11:22:57.961Z,5.00
2017-12-16T11:25:26.964Z,5.00
2017-12-16T11:27:55.947Z,5.00
2017-12-16T11:30:25.045Z,5.00
2017-12-16T11:32:53.206Z,4.90
2017-12-16T11:35:21.435Z,4.90
2017-12-16T11:37:49.641Z,4.80
2017-12-16T11:40:17.874Z,4.80
2017-12-16T11:42:46.093Z,4.70
2017-12-16T11:45:14.859Z,4.70
2017-12-16T11:47:43.085Z,4.70
2017-12-16T11:50:11.342Z,4.60
2017-12-16T11:52:40.330Z,4.70
2017-12-16T11:55:09.499Z,4.70
2017-12-16T11:57:38.534Z,5.00
2017-12-16T12:00:07.688Z,5.00
2017-12-16T12:02:35.905Z,5.00
2017-12-16T12:05:04.894Z,5.10
2017-12-16T12:07:33.887Z,5.10
2017-12-16T12:10:02.346Z,5.00
2017-12-16T12:12:30.591Z,5.10
2017-12-16T12:14:58.826Z,5.10
2017-12-16T12:17:27.078Z,5.20
2017-12-16T12:19:55.286Z,5.30
2017-12-16T12:22:23.513Z,5.30
2017-12-16T12:24:52.530Z,5.20
2017-12-16T12:27:21.647Z,5.20
2017-12-16T12:29:50.109Z,5.20
2017-12-16T12:32:19.098Z,5.30
2017-12-16T12:34:48.102Z,5.30
2017-12-16T12:37:16.324Z,5.30
2017-12-16T12:39:44.557Z,5.30
2017-12-16T12:42:12.786Z,5.20
2017-12-16T12:44:41.018Z,5.20
2017-12-16T12:47:09.247Z,5.20
2017-12-16T12:49:37.499Z,5.20
2017-12-16T12:52:05.718Z,5.20
2017-12-16T12:54:34.711Z,5.30
2017-12-16T12:57:02.949Z,5.20
2017-12-16T12:59:31.268Z,5.20
2017-12-16T13:01:59.421Z,5.20
2017-12-16T13:04:28.437Z,5.20
2017-12-16T13:06:56.673Z,5.20
2017-12-16T13:09:24.896Z,5.30
2017-12-16T13:11:53.198Z,5.30
2017-12-16T13:14:22.139Z,5.30
2017-12-16T13:16:50.363Z,5.20
2017-12-16T13:19:18.582Z,5.30
2017-12-16T13:21:47.595Z,5.30
2017-12-16T13:24:15.857Z,5.20
2017-12-16T13:26:44.850Z,5.20
2017-12-16T13:29:13.853Z,5.20
2017-12-16T13:31:42.105Z,5.10
2017-12-16T13:34:10.337Z,5.20
2017-12-16T13:36:38.582Z,5.20
2017-12-16T13:39:06.818Z,5.20
2017-12-16T13:41:35.838Z,5.20
2017-12-16T13:44:04.837Z,5.20
2017-12-16T13:46:33.063Z,5.20
2017-12-16T13:49:01.302Z,5.20
2017-12-16T13:51:29.534Z,5.30
2017-12-16T13:53:58.553Z,5.30
2017-12-16T13:56:27.551Z,5.20
2017-12-16T13:58:55.792Z,5.20
2017-12-16T14:01:24.025Z,5.20
2017-12-16T14:03:52.262Z,5.10
2017-12-16T14:06:20.499Z,5.10
2017-12-16T14:08:48.762Z,5.10
2017-12-16T14:11:18.019Z,5.10
2017-12-16T14:13:46.243Z,5.00
2017-12-16T14:16:14.479Z,5.10
2017-12-16T14:18:42.723Z,5.00
2017-12-16T14:21:10.988Z,5.00
2017-12-16T14:23:39.998Z,4.90
2017-12-16T14:26:08.220Z,4.80
2017-12-16T14:28:36.450Z,4.80
2017-12-16T14:31:05.427Z,4.80
2017-12-16T14:33:34.458Z,4.80
2017-12-16T14:36:02.683Z,4.80
2017-12-16T14:38:30.913Z,4.80
2017-12-16T14:40:59.166Z,4.80
2017-12-16T14:43:28.166Z,4.80
2017-12-16T14:45:58.040Z,4.80
2017-12-16T14:48:26.291Z,4.80
2017-12-16T14:50:54.517Z,4.90
2017-12-16T14:53:23.513Z,4.90
2017-12-16T14:55:51.982Z,4.90
2017-12-16T14:58:21.017Z,5.00
2017-12-16T15:00:49.229Z,4.90
2017-12-16T15:03:18.654Z,5.00
2017-12-16T15:05:48.081Z,5.00
2017-12-16T15:08:17.171Z,5.00
2017-12-16T15:10:45.450Z,5.00
2017-12-16T15:13:13.677Z,5.00
2017-12-16T15:15:42.706Z,5.00
2017-12-16T15:18:11.678Z,4.90
2017-12-16T15:20:40.682Z,4.90
2017-12-16T15:23:09.666Z,4.90
2017-12-16T15:25:38.661Z,5.00
2017-12-16T15:28:07.651Z,4.90
2017-12-16T15:30:36.250Z,4.90
2017-12-16T15:33:05.230Z,4.80
2017-12-16T15:35:34.233Z,4.70
2017-12-16T15:38:03.223Z,4.70
2017-12-16T15:40:31.420Z,4.60
2017-12-16T15:42:59.654Z,4.60
2017-12-16T15:45:27.866Z,4.50
2017-12-16T15:47:56.090Z,4.50
2017-12-16T15:50:24.319Z,4.50
2017-12-16T15:52:52.566Z,4.50
2017-12-16T15:55:20.758Z,4.40
2017-12-16T15:57:48.998Z,4.40
2017-12-16T16:00:17.995Z,4.40
2017-12-16T16:02:46.997Z,4.40
2017-12-16T16:05:15.231Z,4.40
2017-12-16T16:07:43.754Z,4.40
2017-12-16T16:10:12.919Z,4.50
2017-12-16T16:12:41.937Z,4.50
2017-12-16T16:15:10.239Z,4.40
2017-12-16T16:17:38.518Z,4.50
2017-12-16T16:20:07.620Z,4.50
2017-12-16T16:22:35.852Z,4.40
2017-12-16T16:25:04.142Z,4.50
2017-12-16T16:27:32.523Z,4.50
2017-12-16T16:30:00.811Z,4.50
2017-12-16T16:32:29.135Z,4.40
2017-12-16T16:34:57.450Z,4.40
2017-12-16T16:37:25.746Z,4.40
2017-12-16T16:39:54.076Z,4.40
2017-12-16T16:42:22.457Z,4.40
2017-12-16T16:44:54.350Z,4.50
2017-12-16T16:47:22.918Z,4.50
2017-12-16T16:49:51.122Z,4.60
2017-12-16T16:52:19.366Z,4.60
2017-12-16T16:54:47.564Z,4.60
2017-12-16T16:57:16.541Z,4.60
2017-12-16T16:59:45.537Z,4.60
2017-12-16T17:02:14.577Z,4.60
2017-12-16T17:04:42.795Z,4.60
2017-12-16T17:07:11.815Z,4.70
2017-12-16T17:09:40.046Z,4.60
2017-12-16T17:12:08.301Z,4.70
2017-12-16T17:14:36.544Z,4.60
2017-12-16T17:17:05.606Z,4.70
2017-12-16T17:19:33.855Z,4.70
2017-12-16T17:22:02.151Z,4.60
2017-12-16T17:24:31.169Z,4.60
2017-12-16T17:26:59.394Z,4.60
2017-12-16T17:29:28.423Z,4.50
2017-12-16T17:31:57.425Z,4.50
2017-12-16T17:34:26.426Z,4.50
2017-12-16T17:36:54.653Z,4.50
2017-12-16T17:39:23.693Z,4.50
2017-12-16T17:41:51.914Z,4.40
2017-12-16T17:44:21.178Z,4.40
2017-12-16T17:46:49.393Z,4.40
2017-12-16T17:49:17.613Z,4.40
2017-12-16T17:51:45.868Z,4.40
2017-12-16T17:54:14.873Z,4.50
2017-12-16T17:56:43.117Z,4.40
2017-12-16T17:59:11.331Z,4.40
2017-12-16T18:01:40.338Z,4.40
2017-12-16T18:04:08.557Z,4.30
2017-12-16T18:06:36.792Z,4.30
2017-12-16T18:09:05.013Z,4.20
2017-12-16T18:11:34.112Z,4.20
2017-12-16T18:14:03.112Z,4.20
2017-12-16T18:16:32.093Z,4.20
2017-12-16T18:19:00.326Z,4.20
2017-12-16T18:21:28.554Z,4.20
2017-12-16T18:23:56.818Z,4.20
2017-12-16T18:26:25.014Z,4.30
2017-12-16T18:28:53.993Z,4.30
2017-12-16T18:31:22.226Z,4.30
2017-12-16T18:33:50.475Z,4.30
2017-12-16T18:36:19.425Z,4.40
2017-12-16T18:38:47.653Z,4.40
2017-12-16T18:41:15.893Z,4.40
2017-12-16T18:43:44.137Z,4.40
2017-12-16T18:46:12.366Z,4.40
2017-12-16T18:48:40.606Z,4.40
2017-12-16T18:51:09.619Z,4.40
2017-12-16T18:53:38.599Z,4.30
2017-12-16T18:56:06.860Z,4.30
2017-12-16T18:58:35.091Z,4.30
2017-12-16T19:01:03.335Z,4.20
2017-12-16T19:03:31.583Z,4.20
2017-12-16T19:05:59.798Z,4.20
2017-12-16T19:08:29.162Z,4.10
2017-12-16T19:10:58.153Z,4.00
2017-12-16T19:13:26.443Z,4.00
2017-12-16T19:15:54.717Z,4.00
2017-12-16T19:18:22.957Z,4.10
2017-12-16T19:20:51.328Z,4.10
2017-12-16T19:23:19.615Z,4.10
2017-12-16T19:25:48.734Z,4.10
2017-12-16T19:28:17.724Z,4.20
2017-12-16T19:30:45.947Z,4.10
2017-12-16T19:33:14.162Z,4.20
2017-12-16T19:35:42.409Z,4.30
2017-12-16T19:38:10.605Z,4.30
2017-12-16T19:40:39.695Z,4.40
2017-12-16T19:43:07.886Z,4.30
2017-12-16T19:45:36.127Z,4.40
2017-12-16T19:48:04.383Z,4.40
2017-12-16T19:50:32.687Z,4.30
2017-12-16T19:53:01.678Z,4.30
2017-12-16T19:55:30.698Z,4.40
2017-12-16T19:57:58.972Z,4.40
2017-12-16T20:00:27.334Z,4.40
2017-12-16T20:02:55.561Z,4.40
2017-12-16T20:05:23.918Z,4.40
2017-12-16T20:07:52.232Z,4.40
2017-12-16T20:10:20.522Z,4.40
2017-12-16T20:12:48.838Z,4.40
2017-12-16T20:15:17.838Z,4.40
2017-12-16T20:17:46.158Z,4.40
2017-12-16T20:20:14.420Z,4.40
2017-12-16T20:22:42.881Z,4.40
2017-12-16T20:25:11.191Z,4.40
2017-12-16T20:27:39.686Z,4.40
2017-12-16T20:30:07.918Z,4.40
2017-12-16T20:32:36.789Z,4.40
2017-12-16T20:35:05.869Z,4.50
2017-12-16T20:37:34.178Z,4.40
2017-12-16T20:40:02.498Z,4.50
2017-12-16T20:42:31.610Z,4.40
2017-12-16T20:45:00.879Z,4.40
2017-12-16T20:47:29.274Z,4.40
2017-12-16T20:49:57.489Z,4.40
2017-12-16T20:52:25.720Z,4.40
2017-12-16T21:42:47.386Z,4.00
2017-12-16T21:48:14.834Z,4.00
2017-12-16T21:50:43.821Z,4.00
2017-12-16T21:53:13.330Z,4.00
2017-12-16T21:55:41.540Z,4.00
2017-12-16T21:58:09.761Z,4.10
2017-12-16T22:00:38.055Z,4.10
2017-12-16T22:03:07.130Z,4.20
2017-12-16T22:05:35.409Z,4.20
2017-12-16T22:08:03.679Z,4.30
2017-12-16T22:10:32.009Z,4.20
2017-12-16T22:13:00.252Z,4.20
2017-12-16T22:15:29.259Z,4.10
2017-12-16T22:17:57.503Z,4.10
2017-12-16T22:20:25.775Z,4.10
2017-12-16T22:22:54.176Z,4.10
2017-12-16T22:25:23.178Z,4.10
2017-12-16T22:27:52.313Z,4.10
2017-12-16T22:30:21.390Z,4.00
2017-12-16T22:32:49.678Z,4.00
2017-12-16T22:35:17.891Z,4.00
2017-12-16T22:37:46.146Z,4.00
2017-12-16T22:40:14.428Z,4.00
2017-12-16T22:42:42.673Z,4.00
2017-12-16T22:45:10.903Z,4.10
2017-12-16T22:47:39.134Z,4.00
2017-12-16T22:50:07.353Z,4.10
2017-12-16T22:52:35.759Z,4.00
2017-12-16T22:55:04.705Z,3.90
2017-12-16T22:57:32.946Z,3.90
2017-12-16T23:00:01.375Z,3.80
2017-12-16T23:02:29.663Z,3.80
2017-12-16T23:04:58.706Z,3.80
2017-12-16T23:07:27.193Z,3.80
2017-12-16T23:09:55.513Z,3.80
2017-12-16T23:12:24.601Z,3.80
2017-12-16T23:14:53.629Z,3.80
2017-12-16T23:17:21.941Z,3.80
2017-12-16T23:19:50.183Z,3.80
2017-12-16T23:22:18.494Z,3.80
2017-12-16T23:24:46.851Z,3.80
2017-12-16T23:27:15.080Z,3.90
2017-12-16T23:29:43.327Z,3.90
2017-12-16T23:32:11.558Z,3.80
2017-12-16T23:34:39.825Z,3.80
2017-12-16T23:37:08.280Z,3.80
2017-12-16T23:39:37.886Z,3.90
2017-12-16T23:42:06.881Z,3.90
2017-12-16T23:44:35.130Z,3.80
2017-12-16T23:47:03.364Z,3.90
2017-12-16T23:49:31.623Z,3.90
2017-12-16T23:51:59.875Z,3.90
2017-12-16T23:54:28.148Z,3.90
2017-12-16T23:56:57.163Z,4.00
2017-12-16T23:59:25.448Z,3.90
